Time;durP1;ratioP1;P1;durP2;ratioP2;P2;SDS_P1;SDS_P2;PMS_P1;PMS_P2;Temp;Humidity;BMP_temperature;BMP_pressure;BME280_temperature;BME280_humidity;BME280_pressure;Samples;Min_cycle;Max_cycle;Signal;HPM_P1;HPM_P2
2022/01/10 00:01:28;;;;;;;8.95;5.72;;;;;;;28.67;54.38;101172.91;5086099;27;66428;-37
2022/01/10 00:03:59;;;;;;;8.57;5.75;;;;;;;28.70;54.46;101171.66;5087152;27;69876;-37
2022/01/10 00:06:29;;;;;;;19.45;10.95;;;;;;;28.74;56.15;101172.91;5094865;27;66233;-35
2022/01/10 00:08:59;;;;;;;23.98;11.95;;;;;;;28.79;57.76;101178.56;5082905;27;69794;-37
2022/01/10 00:11:30;;;;;;;35.08;14.35;;;;;;;28.77;59.74;101167.13;5087732;27;66168;-38
2022/01/10 00:14:00;;;;;;;39.17;14.45;;;;;;;28.74;60.65;101156.72;5088529;27;69189;-38
2022/01/10 00:16:30;;;;;;;40.72;18.00;;;;;;;28.96;61.22;101196.09;5084502;27;65798;-37
2022/01/10 00:19:01;;;;;;;59.42;20.38;;;;;;;28.98;63.01;101201.31;5095682;27;69081;-38
2022/01/10 00:21:32;;;;;;;56.88;20.95;;;;;;;28.98;63.53;101195.09;5091414;27;66280;-37
2022/01/10 00:24:03;;;;;;;59.13;19.97;;;;;;;28.95;63.31;101196.31;5086510;27;69189;-35
2022/01/10 00:26:33;;;;;;;75.97;19.63;;;;;;;29.03;63.37;101204.28;5095702;27;65936;-37
2022/01/10 00:29:03;;;;;;;58.80;18.05;;;;;;;29.08;63.72;101207.19;5089706;27;69631;-37
2022/01/10 00:31:34;;;;;;;47.78;16.15;;;;;;;29.16;63.45;101214.31;5097104;27;66126;-37
2022/01/10 00:34:05;;;;;;;52.42;16.33;;;;;;;29.22;64.17;101213.50;5085203;27;70300;-37
2022/01/10 00:36:35;;;;;;;53.53;14.65;;;;;;;29.26;63.47;101209.38;5089370;27;66332;-37
2022/01/10 00:39:07;;;;;;;55.55;15.75;;;;;;;29.30;63.72;101215.19;5083531;27;70095;-37
2022/01/10 00:41:37;;;;;;;;;;;;;;;29.07;66.41;101219.03;5088280;27;65460;-37
2022/01/10 00:44:09;;;;;;;31.40;12.40;;;;;;;29.30;63.79;101216.03;5094815;27;70033;-37
2022/01/10 00:46:39;;;;;;;;;;;;;;;29.08;65.91;101233.38;5092816;27;65796;-37
2022/01/10 00:49:09;;;;;;;17.20;11.05;;;;;;;29.36;62.87;101234.16;5087777;27;68988;-37
2022/01/10 00:51:40;;;;;;;24.55;11.60;;;;;;;29.42;62.91;101239.75;5081673;27;65407;-37
2022/01/10 00:54:11;;;;;;;19.65;11.35;;;;;;;29.44;62.72;101235.00;5083486;27;69245;-36
2022/01/10 00:56:42;;;;;;;18.15;10.50;;;;;;;29.48;63.17;101236.28;5081121;27;65345;-36
2022/01/10 00:59:14;;;;;;;18.90;10.68;;;;;;;29.49;62.75;101237.94;5090855;27;69242;-36
2022/01/10 01:01:44;;;;;;;17.42;10.63;;;;;;;29.54;62.58;101248.97;5082030;27;66423;-36
2022/01/10 01:04:15;;;;;;;21.35;10.10;;;;;;;29.57;62.06;101254.81;5088790;27;70267;-35
2022/01/10 01:06:46;;;;;;;13.75;9.60;;;;;;;29.61;62.45;101258.78;5083792;27;65734;-35
2022/01/10 01:09:21;;;;;;;15.88;10.65;;;;;;;29.64;62.26;101254.84;5086597;27;69376;-36
2022/01/10 01:17:24;;;;;;;14.95;10.55;;;;;;;29.70;61.51;101267.56;5092531;27;67725;-36
2022/01/10 01:25:17;;;;;;;14.90;9.82;;;;;;;29.72;61.49;101273.59;5093773;27;69217;-36
2022/01/10 01:27:51;;;;;;;18.45;10.45;;;;;;;29.77;61.43;101276.53;5094313;27;65300;-37
2022/01/10 01:30:21;;;;;;;14.02;10.75;;;;;;;29.79;61.71;101276.34;5082919;27;69333;-36
2022/01/10 01:32:51;;;;;;;16.52;9.55;;;;;;;29.79;61.03;101268.22;5084514;27;66095;-36
2022/01/10 01:35:24;;;;;;;14.82;10.35;;;;;;;29.83;61.06;101281.13;5083535;27;69148;-36
2022/01/10 01:37:55;;;;;;;11.30;10.27;;;;;;;29.82;61.25;101275.91;5082534;27;65979;-37
2022/01/10 01:40:28;;;;;;;12.77;10.60;;;;;;;29.88;61.19;101287.78;5094548;27;70139;-38
2022/01/10 01:42:59;;;;;;;15.75;11.25;;;;;;;29.88;61.41;101282.38;5086869;27;65507;-37
2022/01/10 01:45:41;;;;;;;15.52;11.10;;;;;;;29.79;61.76;101281.75;5098434;27;70119;-36
2022/01/10 01:48:12;;;;;;;11.73;10.15;;;;;;;29.93;60.86;101296.13;5081374;27;66264;-38
2022/01/10 01:50:43;;;;;;;17.17;10.63;;;;;;;29.94;60.64;101289.69;5086201;27;70039;-36
2022/01/10 01:53:14;;;;;;;16.25;11.40;;;;;;;29.95;60.49;101294.91;5072246;27;66317;-37
2022/01/10 01:55:45;;;;;;;16.88;11.32;;;;;;;29.96;60.80;101295.72;5089551;27;70191;-37
2022/01/10 01:58:16;;;;;;;;;;;;;;;29.61;62.39;101290.38;5104474;27;66011;-37
2022/01/10 02:00:48;;;;;;;10.30;9.15;;;;;;;29.94;60.82;101293.22;5088316;27;70245;-37
2022/01/10 02:03:19;;;;;;;16.63;10.70;;;;;;;30.00;60.71;101305.09;5085915;27;66092;-36
2022/01/10 02:05:57;;;;;;;14.35;11.40;;;;;;;29.96;61.03;101287.59;5085859;27;70495;-35
2022/01/10 02:08:28;;;;;;;18.05;10.63;;;;;;;30.05;60.78;101299.91;5099606;27;66348;-37
2022/01/10 02:10:59;;;;;;;12.93;10.48;;;;;;;30.06;60.78;101302.41;5081640;27;69954;-36
2022/01/10 02:13:32;;;;;;;17.58;10.57;;;;;;;30.08;60.58;101304.06;5084968;27;66363;-36
2022/01/10 02:16:16;;;;;;;11.48;10.15;;;;;;;30.10;60.40;101313.66;5086587;27;70079;-37
2022/01/10 02:18:47;;;;;;;12.95;10.00;;;;;;;30.11;60.25;101304.50;5085906;27;65802;-36
2022/01/10 02:21:17;;;;;;;15.50;10.80;;;;;;;30.10;60.73;101302.81;5089307;27;69763;-36
2022/01/10 02:23:47;;;;;;;14.60;9.80;;;;;;;30.15;60.37;101308.47;5084954;27;66756;-36
2022/01/10 02:26:26;;;;;;;14.48;10.13;;;;;;;30.15;60.01;101303.06;5087491;27;69894;-36
2022/01/10 02:28:57;;;;;;;13.02;10.38;;;;;;;30.17;59.90;101298.28;5082742;27;66516;-37
2022/01/10 02:31:27;;;;;;;12.23;10.05;;;;;;;30.22;59.76;101301.19;5088749;27;69471;-36
2022/01/10 02:33:59;;;;;;;14.02;9.30;;;;;;;30.22;59.62;101303.91;5065685;27;66333;-36
2022/01/10 02:36:29;;;;;;;10.50;9.40;;;;;;;30.25;59.95;101295.38;5085786;27;70143;-36
2022/01/10 02:39:08;;;;;;;12.75;9.88;;;;;;;30.28;60.00;101299.53;5079408;27;65453;-37
2022/01/10 02:41:43;;;;;;;13.57;9.77;;;;;;;30.30;59.83;101296.66;5081441;27;70192;-37
2022/01/10 02:44:16;;;;;;;11.20;9.35;;;;;;;30.23;59.49;101283.94;5084984;27;65649;-37
2022/01/10 02:46:47;;;;;;;10.68;9.68;;;;;;;30.31;59.72;101282.91;5086113;27;70447;-36
2022/01/10 02:49:34;;;;;;;11.20;9.05;;;;;;;30.35;59.71;101295.00;5083875;27;66831;-36
2022/01/10 02:52:06;;;;;;;11.32;9.43;;;;;;;30.38;59.20;101282.91;5081599;27;70231;-37
2022/01/10 02:54:36;;;;;;;12.35;9.57;;;;;;;30.37;59.45;101275.81;5085201;27;66309;-36
2022/01/10 02:57:14;;;;;;;12.93;10.38;;;;;;;30.42;59.54;101279.59;5085980;27;70722;-36
2022/01/10 02:59:45;;;;;;;13.43;10.32;;;;;;;30.44;59.52;101279.38;5087769;27;66723;-37
2022/01/10 03:02:20;;;;;;;10.23;9.23;;;;;;;30.47;59.64;101270.84;5085084;27;70373;-36
2022/01/10 03:04:54;;;;;;;12.50;10.70;;;;;;;30.49;59.34;101271.47;5087121;27;66438;-37
2022/01/10 03:07:24;;;;;;;11.77;9.50;;;;;;;30.50;58.88;101275.81;5082620;27;70415;-35
2022/01/10 03:09:55;;;;;;;14.32;11.05;;;;;;;30.53;59.17;101261.88;5086121;27;65740;-36
2022/01/10 03:12:25;;;;;;;15.65;10.52;;;;;;;30.54;59.35;101260.84;5098730;27;69827;-36
2022/01/10 03:14:56;;;;;;;14.60;10.88;;;;;;;30.54;58.60;101260.84;5091683;27;66483;-37
2022/01/10 03:17:28;;;;;;;16.60;11.38;;;;;;;30.59;59.21;101260.19;5089034;27;70066;-36
2022/01/10 03:19:58;;;;;;;17.05;11.40;;;;;;;30.59;58.59;101252.94;5091033;27;66712;-36
2022/01/10 03:22:31;;;;;;;12.45;11.30;;;;;;;30.65;59.05;101267.50;5075606;27;69607;-35
2022/01/10 03:25:02;;;;;;;12.98;11.15;;;;;;;30.65;58.95;101260.22;5088673;27;65838;-36
2022/01/10 03:27:35;;;;;;;13.63;11.23;;;;;;;30.69;58.52;101264.16;5081982;27;69607;-36
2022/01/10 03:30:06;;;;;;;13.88;11.23;;;;;;;30.70;58.81;101265.84;5093254;27;65369;-36
2022/01/10 03:32:37;;;;;;;16.02;12.23;;;;;;;30.73;58.64;101253.75;5083521;27;69985;-37
2022/01/10 03:35:18;;;;;;;15.10;12.23;;;;;;;30.70;58.63;101249.59;5082331;27;65591;-37
2022/01/10 03:37:48;;;;;;;12.30;11.07;;;;;;;30.77;58.74;101255.00;5090063;27;70569;-36
2022/01/10 03:40:19;;;;;;;14.52;11.40;;;;;;;30.79;58.75;101252.91;5087864;27;66304;-36
2022/01/10 03:42:51;;;;;;;12.40;11.15;;;;;;;30.82;58.37;101240.84;5084081;27;70259;-35
2022/01/10 03:45:21;;;;;;;14.15;11.50;;;;;;;30.84;58.42;101244.16;5099037;27;65976;-37
2022/01/10 03:47:52;;;;;;;14.50;11.38;;;;;;;30.81;58.45;101236.47;5079905;27;70222;-39
2022/01/10 03:50:25;;;;;;;13.38;11.13;;;;;;;30.87;58.24;101244.59;5078565;27;65993;-36
2022/01/10 03:52:56;;;;;;;14.98;11.75;;;;;;;30.90;58.29;101243.34;5077227;27;69987;-37
2022/01/10 03:55:26;;;;;;;15.55;11.30;;;;;;;30.89;58.20;101237.06;5084208;27;66441;-37
2022/01/10 03:57:58;;;;;;;14.48;11.38;;;;;;;30.92;57.71;101241.22;5085916;27;69687;-36
2022/01/10 04:00:28;;;;;;;17.30;12.15;;;;;;;30.95;58.19;101240.81;5086396;27;66233;-39
2022/01/10 04:03:03;;;;;;;14.40;11.30;;;;;;;30.93;57.95;101229.38;5085909;27;70188;-37
2022/01/10 04:05:47;;;;;;;13.93;11.85;;;;;;;30.93;58.07;101232.06;5066637;27;65388;-38
2022/01/10 04:08:19;;;;;;;12.93;11.57;;;;;;;30.99;58.20;101230.41;5080697;27;70399;-36
2022/01/10 04:10:49;;;;;;;15.80;12.38;;;;;;;30.99;57.52;101214.97;5083186;27;66516;-35
2022/01/10 04:13:19;;;;;;;12.68;11.27;;;;;;;31.02;57.96;101217.25;5061322;27;70309;-38
2022/01/10 04:15:50;;;;;;;14.77;11.23;;;;;;;31.02;57.87;101211.00;5079665;27;66588;-37
2022/01/10 04:18:21;;;;;;;12.98;11.68;;;;;;;31.06;57.37;101215.75;5071833;27;69999;-36
2022/01/10 04:20:52;;;;;;;16.50;12.07;;;;;;;31.07;57.92;101201.19;5086166;27;66182;-36
2022/01/10 04:23:23;;;;;;;;;;;;;;;30.83;57.88;101215.41;5086053;27;69923;-37
2022/01/10 04:25:53;;;;;;;12.70;11.50;;;;;;;31.06;57.70;101199.50;5085313;27;64713;-37
2022/01/10 04:28:24;;;;;;;17.38;12.50;;;;;;;31.11;57.41;101202.41;5085359;27;70101;-38
2022/01/10 04:30:54;;;;;;;14.13;12.10;;;;;;;31.12;57.75;101198.66;5085013;27;65351;-37
2022/01/10 04:33:29;;;;;;;14.15;12.20;;;;;;;31.15;57.44;101195.53;5082442;27;70337;-36
2022/01/10 04:36:00;;;;;;;13.07;11.77;;;;;;;31.14;57.47;101184.88;5065633;28;66172;-36
2022/01/10 04:38:32;;;;;;;13.32;11.93;;;;;;;31.15;57.42;101187.41;5071670;28;68737;-36
2022/01/10 04:41:04;;;;;;;14.00;11.60;;;;;;;31.20;57.64;101177.78;5083175;27;66274;-38
2022/01/10 04:43:36;;;;;;;17.83;12.82;;;;;;;31.19;57.28;101176.13;5093052;27;70485;-36
2022/01/10 04:46:08;;;;;;;14.40;12.95;;;;;;;31.20;57.42;101161.50;5087470;27;66264;-36
2022/01/10 04:48:38;;;;;;;13.25;11.73;;;;;;;31.26;57.18;101163.34;5076233;27;69225;-36
2022/01/10 04:51:16;;;;;;;14.43;11.38;;;;;;;31.29;57.16;101160.25;5080755;27;66190;-37
2022/01/10 04:53:53;;;;;;;16.33;11.93;;;;;;;31.31;57.04;101158.13;5069351;27;69858;-37
2022/01/10 04:56:23;;;;;;;12.75;11.30;;;;;;;31.28;57.22;101145.00;5088087;27;65454;-37
2022/01/10 04:58:55;;;;;;;15.35;11.85;;;;;;;31.27;56.80;101129.81;5094692;27;70448;-36
2022/01/10 05:01:26;;;;;;;18.50;12.90;;;;;;;31.33;56.74;101134.34;5069303;28;65756;-36
2022/01/10 05:04:01;;;;;;;14.32;12.40;;;;;;;31.33;56.96;101123.50;5085983;27;69816;-36
2022/01/10 05:06:31;;;;;;;14.45;12.77;;;;;;;31.34;56.74;101125.16;5082050;27;65728;-38
2022/01/10 05:09:01;;;;;;;13.70;12.40;;;;;;;31.31;56.75;101120.19;5083234;27;70115;-37
2022/01/10 05:11:40;;;;;;;15.50;13.27;;;;;;;31.32;56.97;101117.25;5087075;27;66577;-37
2022/01/10 05:14:12;;;;;;;14.73;13.05;;;;;;;31.32;57.29;101114.56;5080768;27;69515;-35
2022/01/10 05:16:44;;;;;;;14.98;13.27;;;;;;;31.30;57.21;101107.69;5086554;27;66000;-36
2022/01/10 05:19:15;;;;;;;15.90;13.43;;;;;;;31.29;57.25;101106.03;5087390;27;70476;-37
2022/01/10 05:21:45;;;;;;;22.30;14.03;;;;;;;31.27;56.99;101097.28;5090783;27;66177;-36
2022/01/10 05:24:16;;;;;;;14.63;13.10;;;;;;;31.26;56.87;101091.03;5071678;27;70130;-37
2022/01/10 05:26:46;;;;;;;15.95;12.93;;;;;;;31.29;57.05;101096.00;5085514;27;65647;-36
2022/01/10 05:29:20;;;;;;;21.70;13.32;;;;;;;31.29;57.01;101095.19;5088459;27;70431;-37
2022/01/10 05:31:51;;;;;;;18.98;13.93;;;;;;;31.30;56.78;101086.81;5087550;27;66122;-37
2022/01/10 05:34:35;;;;;;;16.73;13.25;;;;;;;31.32;57.25;101081.19;5080681;27;69596;-37
2022/01/10 05:37:07;;;;;;;20.35;14.48;;;;;;;31.31;56.99;101077.63;5081222;27;66053;-37
2022/01/10 05:39:37;;;;;;;15.30;13.75;;;;;;;31.33;57.33;101063.88;5087027;27;70200;-36
2022/01/10 05:42:07;;;;;;;17.25;14.48;;;;;;;31.33;56.85;101064.69;5092456;27;65303;-36
2022/01/10 05:44:38;;;;;;;21.02;14.38;;;;;;;31.35;57.12;101059.91;5093985;27;69572;-37
2022/01/10 05:47:09;;;;;;;20.10;15.15;;;;;;;31.34;57.02;101047.41;5083295;27;65849;-35
2022/01/10 05:49:46;;;;;;;22.17;14.55;;;;;;;31.40;56.97;101059.28;5084053;27;69580;-37
2022/01/10 05:52:20;;;;;;;17.58;14.13;;;;;;;31.40;56.73;101043.03;5091209;27;66343;-36
2022/01/10 05:54:55;;;;;;;18.35;14.60;;;;;;;31.41;56.79;101043.84;5084384;27;69411;-37
2022/01/10 05:57:26;;;;;;;17.35;14.13;;;;;;;31.43;56.86;101039.03;5088392;27;66339;-36
2022/01/10 05:59:57;;;;;;;18.75;13.60;;;;;;;31.42;56.81;101031.94;5084237;27;70916;-36
2022/01/10 06:02:27;;;;;;;17.42;14.07;;;;;;;31.40;56.85;101015.91;5089349;27;66277;-37
2022/01/10 06:04:59;;;;;;;15.32;13.82;;;;;;;31.47;56.64;101027.50;5082415;27;70528;-37
2022/01/10 06:07:39;;;;;;;16.40;13.48;;;;;;;31.47;56.54;101011.25;5098945;27;66592;-38
2022/01/10 06:10:09;;;;;;;17.63;13.77;;;;;;;31.51;56.79;101011.63;5099182;27;70023;-37
2022/01/10 06:12:40;;;;;;;19.77;14.40;;;;;;;31.52;56.75;101003.28;5087360;27;65467;-36
2022/01/10 06:15:10;;;;;;;18.48;13.75;;;;;;;31.50;56.98;100999.97;5089691;27;69833;-38
2022/01/10 06:17:45;;;;;;;17.48;14.50;;;;;;;31.55;56.45;100985.75;5080071;27;66533;-36
2022/01/10 06:20:16;;;;;;;16.43;14.07;;;;;;;31.55;56.70;100989.28;5086859;27;69147;-37
2022/01/10 06:22:47;;;;;;;21.27;14.47;;;;;;;31.57;56.82;100978.22;5092190;27;66418;-37
2022/01/10 06:25:22;;;;;;;17.27;14.27;;;;;;;31.60;56.76;100978.59;5083983;27;70289;-37
2022/01/10 06:27:52;;;;;;;25.33;15.23;;;;;;;31.53;56.41;100961.56;5086544;27;66792;-36
2022/01/10 06:30:23;;;;;;;16.08;14.38;;;;;;;31.62;56.83;100967.50;5095137;27;70174;-36
2022/01/10 06:32:54;;;;;;;18.90;14.80;;;;;;;31.64;56.69;100961.88;5093802;27;66264;-37
2022/01/10 06:35:25;;;;;;;15.35;13.10;;;;;;;31.66;56.50;100957.06;5085624;27;70104;-37
2022/01/10 06:37:56;;;;;;;16.65;13.98;;;;;;;31.52;56.79;100921.94;5080302;27;66978;-37
2022/01/10 06:40:27;;;;;;;16.63;15.00;;;;;;;31.70;56.56;100944.72;5090919;27;69991;-36
2022/01/10 06:42:57;;;;;;;20.10;14.95;;;;;;;31.70;56.56;100933.84;5085463;27;65966;-37
2022/01/10 06:45:37;;;;;;;16.48;14.20;;;;;;;31.74;56.37;100930.50;5096776;27;69483;-37
2022/01/10 06:48:36;;;;;;;18.33;14.18;;;;;;;31.74;56.70;100925.06;5085752;27;66258;-37
2022/01/10 06:51:07;;;;;;;16.88;14.57;;;;;;;31.79;56.13;100921.69;5073186;27;70076;-37
2022/01/10 06:53:40;;;;;;;18.38;14.70;;;;;;;31.79;56.26;100916.25;5084173;27;65743;-36
2022/01/10 06:56:11;;;;;;;15.23;13.73;;;;;;;31.78;56.05;100909.16;5086797;27;70696;-37
2022/01/10 06:58:41;;;;;;;15.68;14.02;;;;;;;31.85;56.43;100914.53;5083442;27;66097;-37
2022/01/10 07:01:17;;;;;;;20.40;14.85;;;;;;;31.86;56.30;100902.59;5095296;27;70389;-36
2022/01/10 07:03:53;;;;;;;16.00;14.23;;;;;;;31.87;56.29;100902.38;5087078;27;66175;-36
2022/01/10 07:06:26;;;;;;;15.05;13.65;;;;;;;31.91;56.26;100898.19;5079695;27;70498;-36
2022/01/10 07:09:00;;;;;;;16.60;13.43;;;;;;;31.92;56.02;100896.31;5079166;27;66165;-36
2022/01/10 07:11:39;;;;;;;15.80;14.18;;;;;;;31.93;56.12;100890.66;5075805;27;70782;-36
2022/01/10 07:14:13;;;;;;;18.02;15.02;;;;;;;31.96;55.99;100901.06;5086055;27;65328;-37
2022/01/10 07:16:48;;;;;;;16.20;14.55;;;;;;;31.96;55.72;100895.63;5085072;27;70015;-36
2022/01/10 07:19:20;;;;;;;19.30;14.85;;;;;;;31.99;55.96;100894.34;5084034;27;65439;-36
2022/01/10 07:21:51;;;;;;;17.05;14.95;;;;;;;31.99;55.89;100887.03;5086662;27;69233;-36
2022/01/10 07:24:22;;;;;;;20.55;14.60;;;;;;;31.89;55.78;100870.41;5084250;27;65640;-36
2022/01/10 07:26:52;;;;;;;14.63;13.30;;;;;;;32.00;55.84;100883.25;5082670;27;69845;-36
2022/01/10 07:29:23;;;;;;;16.75;15.13;;;;;;;32.02;55.93;100875.72;5082507;27;65677;-36
2022/01/10 07:31:54;;;;;;;16.67;14.60;;;;;;;32.02;55.72;100872.19;5080623;27;70252;-37
2022/01/10 07:34:24;;;;;;;15.00;13.68;;;;;;;32.03;55.93;100876.53;5080756;27;66236;-36
2022/01/10 07:36:54;;;;;;;18.10;15.15;;;;;;;31.98;55.78;100866.41;5099159;27;71004;-36
2022/01/10 07:39:25;;;;;;;15.32;13.82;;;;;;;32.05;55.68;100874.44;5084595;27;66259;-36
2022/01/10 07:41:55;;;;;;;16.05;14.45;;;;;;;32.01;55.59;100862.38;5089663;27;70560;-36
2022/01/10 07:44:45;;;;;;;15.93;14.48;;;;;;;32.04;55.81;100870.91;5095624;27;66563;-38
2022/01/10 07:47:17;;;;;;;15.70;14.23;;;;;;;32.05;55.60;100863.59;5087291;27;70023;-36
2022/01/10 07:49:47;;;;;;;15.60;14.10;;;;;;;32.07;55.44;100863.34;5092664;27;66455;-36
2022/01/10 07:52:18;;;;;;;17.90;14.35;;;;;;;32.05;55.74;100861.69;5088475;27;69748;-36
2022/01/10 07:54:48;;;;;;;16.67;14.52;;;;;;;32.04;55.67;100862.75;5086115;27;65921;-36
2022/01/10 07:57:19;;;;;;;15.82;14.45;;;;;;;32.09;55.59;100864.78;5089689;27;70054;-37
2022/01/10 07:59:49;;;;;;;20.38;14.23;;;;;;;32.11;55.63;100862.66;5084216;27;66553;-37
2022/01/10 08:02:21;;;;;;;14.95;13.48;;;;;;;32.12;55.63;100863.50;5091564;27;70091;-37
2022/01/10 08:04:52;;;;;;;18.13;14.93;;;;;;;32.11;55.45;100865.38;5087602;27;65068;-35
2022/01/10 08:07:22;;;;;;;16.38;14.77;;;;;;;32.15;55.21;100860.31;5082622;27;70580;-36
2022/01/10 08:09:52;;;;;;;15.85;14.48;;;;;;;32.13;55.35;100857.03;5082272;27;65480;-37
2022/01/10 08:12:22;;;;;;;21.13;15.27;;;;;;;32.16;55.48;100857.38;5095905;27;70104;-37
2022/01/10 08:14:52;;;;;;;17.40;15.65;;;;;;;32.17;55.43;100858.19;5090954;27;66293;-37
2022/01/10 08:17:22;;;;;;;17.20;15.30;;;;;;;32.17;55.49;100848.16;5087994;27;70084;-37
2022/01/10 08:20:09;;;;;;;17.67;15.98;;;;;;;32.20;55.22;100855.03;5081645;27;66566;-36
2022/01/10 08:22:40;;;;;;;16.67;15.13;;;;;;;32.22;55.65;100855.63;5092960;27;69437;-36
2022/01/10 08:25:10;;;;;;;17.50;15.88;;;;;;;32.24;55.07;100853.53;5088601;27;65684;-36
2022/01/10 08:27:41;;;;;;;17.52;15.30;;;;;;;32.24;55.46;100857.06;5082497;27;70305;-36
2022/01/10 08:30:11;;;;;;;18.88;15.77;;;;;;;32.27;55.35;100848.44;5084628;27;66420;-36
2022/01/10 08:32:42;;;;;;;18.30;16.30;;;;;;;32.26;55.31;100854.09;5082415;27;69874;-36
2022/01/10 08:35:12;;;;;;;17.90;15.98;;;;;;;32.32;55.21;100861.34;5086988;27;65604;-36
2022/01/10 08:37:42;;;;;;;19.95;16.38;;;;;;;32.32;55.17;100855.91;5086770;27;69325;-36
2022/01/10 08:40:14;;;;;;;17.80;15.48;;;;;;;32.35;55.10;100855.44;5092499;27;65333;-36
2022/01/10 08:42:44;;;;;;;18.70;16.48;;;;;;;32.31;55.24;100853.41;5084405;27;69828;-36
2022/01/10 08:45:15;;;;;;;18.45;16.67;;;;;;;32.37;55.08;100864.16;5100043;27;66345;-37
2022/01/10 08:47:46;;;;;;;17.83;16.17;;;;;;;32.38;55.42;100865.84;5088519;27;70020;-37
2022/01/10 08:50:16;;;;;;;23.83;16.92;;;;;;;32.36;54.77;100862.53;5088283;27;66211;-37
2022/01/10 08:52:48;;;;;;;19.25;17.25;;;;;;;32.37;55.15;100858.75;5090978;27;70332;-38
2022/01/10 08:55:18;;;;;;;19.35;17.17;;;;;;;32.37;55.11;100861.44;5084415;27;66267;-36
2022/01/10 08:57:49;;;;;;;23.10;17.73;;;;;;;32.39;55.00;100862.06;5084734;27;70458;-37
2022/01/10 09:00:21;;;;;;;20.75;16.73;;;;;;;32.37;55.11;100863.34;5083535;27;65440;-37
2022/01/10 09:02:51;;;;;;;18.92;17.05;;;;;;;32.36;55.07;100870.66;5081826;27;69968;-37
2022/01/10 09:05:22;;;;;;;19.75;17.75;;;;;;;32.25;55.09;100852.44;5092979;27;65291;-38
2022/01/10 09:07:52;;;;;;;17.95;16.25;;;;;;;32.34;55.02;100867.34;5090929;27;70299;-37
2022/01/10 09:10:23;;;;;;;21.35;17.15;;;;;;;32.34;55.04;100870.06;5087361;27;65925;-37
2022/01/10 09:12:53;;;;;;;19.92;17.30;;;;;;;32.40;55.16;100874.59;5092740;27;69961;-37
2022/01/10 09:15:24;;;;;;;21.85;18.02;;;;;;;32.38;54.73;100871.28;5087958;27;66219;-37
2022/01/10 09:17:54;;;;;;;21.40;17.67;;;;;;;32.37;55.35;100875.03;5089065;27;69970;-38
2022/01/10 09:20:25;;;;;;;22.35;17.63;;;;;;;32.40;55.05;100890.03;5085953;27;66742;-37
2022/01/10 09:22:55;;;;;;;23.77;17.52;;;;;;;32.40;54.84;100887.31;5092403;27;69662;-37
2022/01/10 09:25:25;;;;;;;19.10;17.15;;;;;;;32.40;55.25;100890.03;5081823;27;66481;-36
2022/01/10 09:27:55;;;;;;;21.30;18.75;;;;;;;32.39;54.93;100897.34;5085228;27;69507;-37
2022/01/10 09:30:26;;;;;;;20.05;18.10;;;;;;;32.41;55.09;100897.13;5092892;27;66115;-37
2022/01/10 09:32:56;;;;;;;21.20;18.00;;;;;;;32.41;55.13;100903.38;5087511;27;70627;-37
2022/01/10 09:35:26;;;;;;;20.63;18.25;;;;;;;32.37;54.81;100895.94;5091896;27;66373;-37
2022/01/10 09:37:57;;;;;;;20.48;18.38;;;;;;;32.39;55.04;100905.50;5087833;27;69903;-37
2022/01/10 09:40:27;;;;;;;22.48;18.27;;;;;;;32.36;54.91;100900.53;5084296;27;67073;-36
2022/01/10 09:42:58;;;;;;;29.85;18.98;;;;;;;32.38;55.43;100911.19;5085464;27;70273;-37
2022/01/10 09:45:28;;;;;;;25.13;18.80;;;;;;;32.40;54.89;100920.75;5085114;27;66227;-37
2022/01/10 09:48:00;;;;;;;22.15;18.65;;;;;;;32.38;55.04;100912.00;5087116;27;70012;-36
2022/01/10 09:50:30;;;;;;;21.42;19.30;;;;;;;32.36;54.79;100916.81;5091140;27;66146;-38
2022/01/10 09:53:01;;;;;;;24.60;18.90;;;;;;;32.38;55.07;100920.13;5086732;27;69985;-36
2022/01/10 09:55:33;;;;;;;25.30;18.70;;;;;;;32.38;54.96;100925.56;5085624;27;66278;-38
2022/01/10 09:58:06;;;;;;;;;;;;;;;32.16;55.38;100927.13;5084125;27;70162;-36
2022/01/10 10:01:08;;;;;;;21.25;17.88;;;;;;;32.29;55.43;100932.38;5086181;27;66000;-36
2022/01/10 10:03:38;;;;;;;;;;;;;;;32.13;55.80;100933.00;5087396;27;70146;-37
2022/01/10 10:06:09;;;;;;;18.27;16.35;;;;;;;32.15;55.16;100906.44;5079081;27;65325;-37
2022/01/10 10:08:40;;;;;;;18.50;16.67;;;;;;;32.32;55.32;100942.78;5081516;27;70225;-36
2022/01/10 10:11:11;;;;;;;18.33;16.35;;;;;;;31.95;55.22;100877.69;5086331;27;66357;-36
2022/01/10 10:13:56;;;;;;;23.35;16.95;;;;;;;32.31;55.21;100943.81;5086031;27;70175;-38
2022/01/10 10:16:26;;;;;;;18.08;16.23;;;;;;;32.33;55.54;100949.84;5091603;27;66228;-38
2022/01/10 10:18:58;;;;;;;21.60;15.80;;;;;;;32.35;55.30;100947.75;5084143;27;70033;-38
2022/01/10 10:21:30;;;;;;;16.45;14.90;;;;;;;32.32;55.03;100947.34;5086382;27;66184;-37
2022/01/10 10:24:04;;;;;;;18.70;14.80;;;;;;;32.30;55.30;100955.75;5086494;27;70174;-38
2022/01/10 10:26:34;;;;;;;22.40;14.48;;;;;;;32.32;55.22;100967.22;5082412;27;66156;-38
2022/01/10 10:29:05;;;;;;;16.05;14.38;;;;;;;32.28;55.53;100958.69;5080915;27;68961;-36
2022/01/10 10:31:45;;;;;;;15.50;13.90;;;;;;;32.30;55.30;100973.94;5083460;27;65841;-37
2022/01/10 10:34:21;;;;;;;15.75;14.10;;;;;;;32.28;55.31;100963.28;5088034;27;69056;-37
2022/01/10 10:37:05;;;;;;;15.70;14.02;;;;;;;32.26;55.19;100954.53;5083569;27;65632;-36
2022/01/10 10:39:43;;;;;;;15.88;13.50;;;;;;;32.29;55.79;100964.97;5089125;27;70350;-36
2022/01/10 10:42:16;;;;;;;14.18;12.73;;;;;;;32.27;55.53;100967.06;5086821;27;65784;-38
2022/01/10 10:44:46;;;;;;;16.38;12.93;;;;;;;32.27;56.28;100983.34;5086792;27;69854;-39
2022/01/10 10:47:25;;;;;;;22.48;13.15;;;;;;;32.28;56.16;100985.00;5081601;27;66961;-39
2022/01/10 10:50:00;;;;;;;20.92;13.60;;;;;;;32.30;56.92;100988.31;5091353;27;70547;-38
2022/01/10 10:52:38;;;;;;;26.85;13.75;;;;;;;32.05;56.91;100940.38;5088022;27;66073;-39
2022/01/10 10:55:14;;;;;;;31.83;14.48;;;;;;;32.30;57.95;100977.47;5083316;27;69633;-38
2022/01/10 10:57:45;;;;;;;29.83;14.02;;;;;;;32.33;57.67;100989.75;5082709;27;65543;-38
2022/01/10 11:00:16;;;;;;;21.55;12.65;;;;;;;32.32;58.04;100986.22;5086836;27;70427;-39
2022/01/10 11:02:47;;;;;;;25.10;12.27;;;;;;;32.31;57.57;100992.69;5085027;27;66005;-39
2022/01/10 11:05:17;;;;;;;24.45;11.77;;;;;;;32.32;57.83;100997.06;5086138;27;70414;-39
2022/01/10 11:07:48;;;;;;;18.00;10.73;;;;;;;32.32;57.77;101002.50;5088327;27;66063;-39
2022/01/10 11:10:18;;;;;;;20.52;10.85;;;;;;;32.18;57.83;100990.13;5087181;27;69280;-39
2022/01/10 11:12:53;;;;;;;27.00;11.10;;;;;;;32.08;58.29;100981.69;5088710;27;65823;-39
2022/01/10 11:15:24;;;;;;;20.48;10.70;;;;;;;32.28;58.24;101018.41;5075639;27;69322;-40
2022/01/10 11:18:01;;;;;;;21.98;11.45;;;;;;;32.24;58.80;101016.38;5089848;27;65106;-37
2022/01/10 11:20:53;;;;;;;26.98;10.65;;;;;;;32.24;59.51;101027.22;5083780;27;69192;-39
2022/01/10 11:23:44;;;;;;;17.88;9.93;;;;;;;32.24;58.72;101013.66;5085720;27;66381;-39
2022/01/10 11:26:17;;;;;;;21.95;9.98;;;;;;;32.30;58.92;101029.03;5086473;27;70016;-38
2022/01/10 11:28:50;;;;;;;15.93;9.55;;;;;;;32.33;58.84;101034.00;5092397;27;66306;-38
2022/01/10 11:31:23;;;;;;;17.83;9.82;;;;;;;32.08;59.08;100995.25;5087755;27;70493;-38
2022/01/10 11:33:56;;;;;;;14.65;9.90;;;;;;;32.30;59.35;101042.59;5085129;27;66252;-38
2022/01/10 11:36:29;;;;;;;12.63;10.00;;;;;;;32.30;59.15;101050.75;5084037;27;69895;-39
2022/01/10 11:39:10;;;;;;;15.55;10.25;;;;;;;32.07;59.76;101021.56;5083443;27;65391;-39
2022/01/10 11:41:41;;;;;;;14.65;9.38;;;;;;;32.26;59.66;101057.66;5085772;27;69471;-38
2022/01/10 11:44:12;;;;;;;15.27;9.57;;;;;;;32.30;59.87;101058.06;5090343;27;66491;-40
2022/01/10 11:46:50;;;;;;;32.27;12.40;;;;;;;32.31;59.76;101070.59;5090520;27;69908;-38